sensor_id;sensor_type;location;lat;lon;timestamp;temperature;humidity
62998;DHT22;55949;52.590;7.330;2022-12-18T00:00:59;-3.30;99.90
62998;DHT22;55949;52.590;7.330;2022-12-18T00:02:00;-3.30;99.90
62998;DHT22;55949;52.590;7.330;2022-12-18T00:03:00;-3.20;99.90
62998;DHT22;55949;52.590;7.330;2022-12-18T00:04:07;-3.20;99.90
62998;DHT22;55949;52.590;7.330;2022-12-18T00:05:11;-3.40;99.90
62998;DHT22;55949;52.590;7.330;2022-12-18T00:06:12;-3.50;99.90
62998;DHT22;55949;52.590;7.330;2022-12-18T00:07:14;-3.50;99.90
62998;DHT22;55949;52.590;7.330;2022-12-18T00:08:15;-3.50;99.90
62998;DHT22;55949;52.590;7.330;2022-12-18T00:09:16;-3.60;99.90
62998;DHT22;55949;52.590;7.330;2022-12-18T00:10:20;-3.70;99.90
62998;DHT22;55949;52.590;7.330;2022-12-18T00:11:23;-3.60;99.90
62998;DHT22;55949;52.590;7.330;2022-12-18T00:12:24;-3.50;99.90
62998;DHT22;55949;52.590;7.330;2022-12-18T00:13:24;-3.60;99.90
62998;DHT22;55949;52.590;7.330;2022-12-18T00:14:25;-3.70;99.90
62998;DHT22;55949;52.590;7.330;2022-12-18T00:15:26;-3.70;99.90
62998;DHT22;55949;52.590;7.330;2022-12-18T00:16:27;-3.60;99.90
62998;DHT22;55949;52.590;7.330;2022-12-18T00:17:28;-3.50;99.90
62998;DHT22;55949;52.590;7.330;2022-12-18T00:18:29;-3.40;99.90
62998;DHT22;55949;52.590;7.330;2022-12-18T00:19:30;-3.50;99.90
62998;DHT22;55949;52.590;7.330;2022-12-18T00:20:31;-3.50;99.90
62998;DHT22;55949;52.590;7.330;2022-12-18T00:21:32;-3.60;99.90
62998;DHT22;55949;52.590;7.330;2022-12-18T00:22:33;-3.50;99.90
62998;DHT22;55949;52.590;7.330;2022-12-18T00:23:34;-3.20;99.90
62998;DHT22;55949;52.590;7.330;2022-12-18T00:24:36;-3.00;99.90
62998;DHT22;55949;52.590;7.330;2022-12-18T00:25:36;-3.00;99.90
62998;DHT22;55949;52.590;7.330;2022-12-18T00:26:38;-2.80;99.90
62998;DHT22;55949;52.590;7.330;2022-12-18T00:27:39;-2.70;99.90
62998;DHT22;55949;52.590;7.330;2022-12-18T00:28:40;-2.50;99.90
62998;DHT22;55949;52.590;7.330;2022-12-18T00:29:40;-2.40;99.90
62998;DHT22;55949;52.590;7.330;2022-12-18T00:30:41;-2.40;99.90
62998;DHT22;55949;52.590;7.330;2022-12-18T00:31:43;-2.50;99.90
62998;DHT22;55949;52.590;7.330;2022-12-18T00:32:44;-2.60;99.90
62998;DHT22;55949;52.590;7.330;2022-12-18T00:33:45;-2.70;99.90
62998;DHT22;55949;52.590;7.330;2022-12-18T00:34:46;-2.90;99.90
62998;DHT22;55949;52.590;7.330;2022-12-18T00:35:46;-3.10;99.90
62998;DHT22;55949;52.590;7.330;2022-12-18T00:36:48;-3.10;99.90
62998;DHT22;55949;52.590;7.330;2022-12-18T00:37:49;-3.30;99.90
62998;DHT22;55949;52.590;7.330;2022-12-18T00:38:50;-3.20;99.90
62998;DHT22;55949;52.590;7.330;2022-12-18T00:39:51;-3.30;99.90
62998;DHT22;55949;52.590;7.330;2022-12-18T00:40:51;-3.20;99.90
62998;DHT22;55949;52.590;7.330;2022-12-18T00:41:52;-3.30;99.90
62998;DHT22;55949;52.590;7.330;2022-12-18T00:43:11;-3.30;99.90
62998;DHT22;55949;52.590;7.330;2022-12-18T00:44:14;-3.40;99.90
62998;DHT22;55949;52.590;7.330;2022-12-18T00:45:15;-3.70;99.90
62998;DHT22;55949;52.590;7.330;2022-12-18T00:46:16;-3.70;99.90
62998;DHT22;55949;52.590;7.330;2022-12-18T00:47:16;-3.80;99.90
62998;DHT22;55949;52.590;7.330;2022-12-18T00:48:17;-3.70;99.90
62998;DHT22;55949;52.590;7.330;2022-12-18T00:49:19;-3.80;99.90
62998;DHT22;55949;52.590;7.330;2022-12-18T00:50:20;-3.70;99.90
62998;DHT22;55949;52.590;7.330;2022-12-18T00:51:21;-3.60;99.90
62998;DHT22;55949;52.590;7.330;2022-12-18T00:52:22;-3.50;99.90
62998;DHT22;55949;52.590;7.330;2022-12-18T00:53:22;-3.40;99.90
62998;DHT22;55949;52.590;7.330;2022-12-18T00:54:23;-3.40;99.90
62998;DHT22;55949;52.590;7.330;2022-12-18T00:55:24;-3.20;99.90
62998;DHT22;55949;52.590;7.330;2022-12-18T00:56:25;-3.10;99.90
62998;DHT22;55949;52.590;7.330;2022-12-18T00:57:25;-2.90;99.90
62998;DHT22;55949;52.590;7.330;2022-12-18T00:58:26;-2.90;99.90
62998;DHT22;55949;52.590;7.330;2022-12-18T00:59:27;-2.80;99.90
62998;DHT22;55949;52.590;7.330;2022-12-18T01:00:27;-2.90;99.90
62998;DHT22;55949;52.590;7.330;2022-12-18T01:01:28;-3.00;99.90
62998;DHT22;55949;52.590;7.330;2022-12-18T01:02:29;-3.10;99.90
62998;DHT22;55949;52.590;7.330;2022-12-18T01:03:29;-3.10;99.90
62998;DHT22;55949;52.590;7.330;2022-12-18T01:04:32;-3.10;99.90
62998;DHT22;55949;52.590;7.330;2022-12-18T01:05:33;-3.20;99.90
62998;DHT22;55949;52.590;7.330;2022-12-18T01:06:34;-3.20;99.90
62998;DHT22;55949;52.590;7.330;2022-12-18T01:07:34;-3.30;99.90
62998;DHT22;55949;52.590;7.330;2022-12-18T01:08:35;-3.50;99.90
62998;DHT22;55949;52.590;7.330;2022-12-18T01:09:36;-3.70;99.90
62998;DHT22;55949;52.590;7.330;2022-12-18T01:10:40;-3.80;99.90
62998;DHT22;55949;52.590;7.330;2022-12-18T01:11:41;-3.90;99.90
62998;DHT22;55949;52.590;7.330;2022-12-18T01:12:41;-4.00;99.90
62998;DHT22;55949;52.590;7.330;2022-12-18T01:13:42;-4.10;99.90
62998;DHT22;55949;52.590;7.330;2022-12-18T01:14:43;-4.30;99.90
62998;DHT22;55949;52.590;7.330;2022-12-18T01:15:50;-4.40;99.90
62998;DHT22;55949;52.590;7.330;2022-12-18T01:16:51;-4.40;99.90
62998;DHT22;55949;52.590;7.330;2022-12-18T01:17:53;-4.50;99.90
62998;DHT22;55949;52.590;7.330;2022-12-18T01:18:54;-4.60;99.90
62998;DHT22;55949;52.590;7.330;2022-12-18T01:19:55;-4.60;99.90
62998;DHT22;55949;52.590;7.330;2022-12-18T01:20:55;-4.60;99.90
62998;DHT22;55949;52.590;7.330;2022-12-18T01:21:56;-4.60;99.90
62998;DHT22;55949;52.590;7.330;2022-12-18T01:22:57;-4.70;99.90
62998;DHT22;55949;52.590;7.330;2022-12-18T01:23:57;-4.70;99.90
62998;DHT22;55949;52.590;7.330;2022-12-18T01:24:58;-4.80;99.90
62998;DHT22;55949;52.590;7.330;2022-12-18T01:26:07;-4.80;99.90
62998;DHT22;55949;52.590;7.330;2022-12-18T01:27:08;-4.80;99.90
62998;DHT22;55949;52.590;7.330;2022-12-18T01:28:08;-4.80;99.90
62998;DHT22;55949;52.590;7.330;2022-12-18T01:29:09;-4.80;99.90
62998;DHT22;55949;52.590;7.330;2022-12-18T01:30:10;-4.80;99.90
62998;DHT22;55949;52.590;7.330;2022-12-18T01:31:13;-4.80;99.90
62998;DHT22;55949;52.590;7.330;2022-12-18T01:32:14;-4.90;99.90
62998;DHT22;55949;52.590;7.330;2022-12-18T01:33:14;-4.70;99.90
62998;DHT22;55949;52.590;7.330;2022-12-18T01:34:15;-4.30;99.90
62998;DHT22;55949;52.590;7.330;2022-12-18T01:35:16;-4.00;99.90
62998;DHT22;55949;52.590;7.330;2022-12-18T01:36:27;-3.70;99.90
62998;DHT22;55949;52.590;7.330;2022-12-18T01:37:28;-3.70;99.90
62998;DHT22;55949;52.590;7.330;2022-12-18T01:38:29;-3.50;99.90
62998;DHT22;55949;52.590;7.330;2022-12-18T01:39:30;-3.70;99.90
62998;DHT22;55949;52.590;7.330;2022-12-18T01:40:32;-3.90;99.90
62998;DHT22;55949;52.590;7.330;2022-12-18T01:41:34;-4.00;99.90
62998;DHT22;55949;52.590;7.330;2022-12-18T01:42:53;-4.20;99.90
62998;DHT22;55949;52.590;7.330;2022-12-18T01:43:56;-4.20;99.90
62998;DHT22;55949;52.590;7.330;2022-12-18T01:45:59;-4.30;99.90
62998;DHT22;55949;52.590;7.330;2022-12-18T01:47:00;-4.40;99.90
62998;DHT22;55949;52.590;7.330;2022-12-18T01:48:05;-4.50;99.90
62998;DHT22;55949;52.590;7.330;2022-12-18T01:49:06;-4.60;99.90
62998;DHT22;55949;52.590;7.330;2022-12-18T01:50:25;-4.60;99.90
62998;DHT22;55949;52.590;7.330;2022-12-18T01:51:28;-4.70;99.90
62998;DHT22;55949;52.590;7.330;2022-12-18T01:52:31;-4.70;99.90
62998;DHT22;55949;52.590;7.330;2022-12-18T01:53:33;-4.70;99.90
62998;DHT22;55949;52.590;7.330;2022-12-18T01:54:34;-4.70;99.90
62998;DHT22;55949;52.590;7.330;2022-12-18T01:55:50;-4.60;99.90
62998;DHT22;55949;52.590;7.330;2022-12-18T01:56:52;-4.40;99.90
62998;DHT22;55949;52.590;7.330;2022-12-18T01:57:55;-4.40;99.90
62998;DHT22;55949;52.590;7.330;2022-12-18T01:59:03;-4.50;99.90
62998;DHT22;55949;52.590;7.330;2022-12-18T02:00:12;-4.50;99.90
62998;DHT22;55949;52.590;7.330;2022-12-18T02:01:13;-4.50;99.90
62998;DHT22;55949;52.590;7.330;2022-12-18T02:02:15;-4.60;99.90
62998;DHT22;55949;52.590;7.330;2022-12-18T02:03:16;-4.70;99.90
62998;DHT22;55949;52.590;7.330;2022-12-18T02:04:25;-4.70;99.90
62998;DHT22;55949;52.590;7.330;2022-12-18T02:06:41;-4.80;99.90
62998;DHT22;55949;52.590;7.330;2022-12-18T02:08:10;-4.90;99.90
62998;DHT22;55949;52.590;7.330;2022-12-18T02:09:18;-4.90;99.90
62998;DHT22;55949;52.590;7.330;2022-12-18T02:12:05;-5.00;99.90
62998;DHT22;55949;52.590;7.330;2022-12-18T02:15:54;-5.20;99.90
62998;DHT22;55949;52.590;7.330;2022-12-18T02:17:07;-5.20;99.90
62998;DHT22;55949;52.590;7.330;2022-12-18T02:18:19;-5.10;99.90
62998;DHT22;55949;52.590;7.330;2022-12-18T02:20:54;-4.90;99.90
62998;DHT22;55949;52.590;7.330;2022-12-18T02:22:24;-5.00;99.90
62998;DHT22;55949;52.590;7.330;2022-12-18T02:23:39;-5.00;99.90
62998;DHT22;55949;52.590;7.330;2022-12-18T02:25:13;-4.90;99.90
62998;DHT22;55949;52.590;7.330;2022-12-18T02:27:30;-5.00;99.90
62998;DHT22;55949;52.590;7.330;2022-12-18T02:28:36;-5.00;99.90
62998;DHT22;55949;52.590;7.330;2022-12-18T02:29:50;-5.00;99.90
62998;DHT22;55949;52.590;7.330;2022-12-18T02:30:53;-5.20;99.90
62998;DHT22;55949;52.590;7.330;2022-12-18T02:32:01;-5.20;99.90
62998;DHT22;55949;52.590;7.330;2022-12-18T02:33:05;-5.30;99.90
62998;DHT22;55949;52.590;7.330;2022-12-18T02:34:08;-5.30;99.90
62998;DHT22;55949;52.590;7.330;2022-12-18T02:35:17;-5.10;99.90
62998;DHT22;55949;52.590;7.330;2022-12-18T02:36:20;-5.00;99.90
62998;DHT22;55949;52.590;7.330;2022-12-18T02:37:23;-4.80;99.90
62998;DHT22;55949;52.590;7.330;2022-12-18T02:38:25;-4.60;99.90
62998;DHT22;55949;52.590;7.330;2022-12-18T02:39:26;-4.50;99.90
62998;DHT22;55949;52.590;7.330;2022-12-18T02:40:30;-4.50;99.90
62998;DHT22;55949;52.590;7.330;2022-12-18T02:41:31;-4.50;99.90
62998;DHT22;55949;52.590;7.330;2022-12-18T02:42:32;-4.60;99.90
62998;DHT22;55949;52.590;7.330;2022-12-18T02:43:33;-4.60;99.90
62998;DHT22;55949;52.590;7.330;2022-12-18T02:44:48;-4.80;99.90
62998;DHT22;55949;52.590;7.330;2022-12-18T02:45:55;-4.90;99.90
62998;DHT22;55949;52.590;7.330;2022-12-18T02:46:56;-5.00;99.90
62998;DHT22;55949;52.590;7.330;2022-12-18T02:47:57;-5.00;99.90
62998;DHT22;55949;52.590;7.330;2022-12-18T02:50:36;-4.80;99.90
62998;DHT22;55949;52.590;7.330;2022-12-18T02:51:55;-4.90;99.90
62998;DHT22;55949;52.590;7.330;2022-12-18T02:53:17;-4.70;99.90
62998;DHT22;55949;52.590;7.330;2022-12-18T02:56:54;-4.60;99.90
62998;DHT22;55949;52.590;7.330;2022-12-18T02:59:17;-4.80;99.90
62998;DHT22;55949;52.590;7.330;2022-12-18T03:00:30;-4.80;99.90
62998;DHT22;55949;52.590;7.330;2022-12-18T03:01:48;-4.90;99.90
62998;DHT22;55949;52.590;7.330;2022-12-18T03:03:01;-4.80;99.90
62998;DHT22;55949;52.590;7.330;2022-12-18T03:04:12;-4.60;99.90
62998;DHT22;55949;52.590;7.330;2022-12-18T03:05:24;-4.70;99.90
62998;DHT22;55949;52.590;7.330;2022-12-18T03:06:38;-4.50;99.90
62998;DHT22;55949;52.590;7.330;2022-12-18T03:09:12;-4.60;99.90
62998;DHT22;55949;52.590;7.330;2022-12-18T03:10:20;-4.70;99.90
62998;DHT22;55949;52.590;7.330;2022-12-18T03:11:25;-4.80;99.90
62998;DHT22;55949;52.590;7.330;2022-12-18T03:13:00;-4.60;99.90
62998;DHT22;55949;52.590;7.330;2022-12-18T03:14:03;-4.60;99.90
62998;DHT22;55949;52.590;7.330;2022-12-18T03:15:27;-4.70;99.90
62998;DHT22;55949;52.590;7.330;2022-12-18T03:16:30;-4.90;99.90
62998;DHT22;55949;52.590;7.330;2022-12-18T03:17:33;-4.90;99.90
62998;DHT22;55949;52.590;7.330;2022-12-18T03:18:42;-5.00;99.90
62998;DHT22;55949;52.590;7.330;2022-12-18T03:19:46;-5.00;99.90
62998;DHT22;55949;52.590;7.330;2022-12-18T03:20:48;-4.90;99.90
62998;DHT22;55949;52.590;7.330;2022-12-18T03:21:54;-4.80;99.90
62998;DHT22;55949;52.590;7.330;2022-12-18T03:23:02;-4.80;99.90
62998;DHT22;55949;52.590;7.330;2022-12-18T03:24:06;-4.70;99.90
62998;DHT22;55949;52.590;7.330;2022-12-18T03:25:11;-4.70;99.90
62998;DHT22;55949;52.590;7.330;2022-12-18T03:26:19;-4.60;99.90
62998;DHT22;55949;52.590;7.330;2022-12-18T03:27:24;-4.70;99.90
62998;DHT22;55949;52.590;7.330;2022-12-18T03:28:28;-4.40;99.90
62998;DHT22;55949;52.590;7.330;2022-12-18T03:30:41;-4.30;99.90
62998;DHT22;55949;52.590;7.330;2022-12-18T03:31:49;-4.40;99.90
62998;DHT22;55949;52.590;7.330;2022-12-18T03:33:18;-4.20;99.90
62998;DHT22;55949;52.590;7.330;2022-12-18T03:34:23;-4.20;99.90
62998;DHT22;55949;52.590;7.330;2022-12-18T03:35:29;-4.00;99.90
62998;DHT22;55949;52.590;7.330;2022-12-18T03:36:31;-3.80;99.90
62998;DHT22;55949;52.590;7.330;2022-12-18T03:37:32;-3.80;99.90
62998;DHT22;55949;52.590;7.330;2022-12-18T03:38:33;-3.90;99.90
62998;DHT22;55949;52.590;7.330;2022-12-18T03:39:34;-4.00;99.90
62998;DHT22;55949;52.590;7.330;2022-12-18T03:43:11;-4.50;99.90
62998;DHT22;55949;52.590;7.330;2022-12-18T03:44:30;-4.60;99.90
62998;DHT22;55949;52.590;7.330;2022-12-18T03:45:41;-4.80;99.90
62998;DHT22;55949;52.590;7.330;2022-12-18T03:48:06;-5.00;99.90
62998;DHT22;55949;52.590;7.330;2022-12-18T03:49:14;-5.00;99.90
62998;DHT22;55949;52.590;7.330;2022-12-18T03:50:45;-5.10;99.90
62998;DHT22;55949;52.590;7.330;2022-12-18T03:54:15;-5.30;99.90
62998;DHT22;55949;52.590;7.330;2022-12-18T03:55:18;-5.40;99.90
62998;DHT22;55949;52.590;7.330;2022-12-18T03:56:22;-5.30;99.90
62998;DHT22;55949;52.590;7.330;2022-12-18T03:57:28;-5.00;99.90
62998;DHT22;55949;52.590;7.330;2022-12-18T03:58:33;-4.90;99.90
62998;DHT22;55949;52.590;7.330;2022-12-18T03:59:35;-4.90;99.90
62998;DHT22;55949;52.590;7.330;2022-12-18T04:00:38;-5.00;99.90
62998;DHT22;55949;52.590;7.330;2022-12-18T04:01:42;-5.10;99.90
62998;DHT22;55949;52.590;7.330;2022-12-18T04:02:52;-5.10;99.90
62998;DHT22;55949;52.590;7.330;2022-12-18T04:03:53;-5.20;99.90
62998;DHT22;55949;52.590;7.330;2022-12-18T04:04:58;-5.10;99.90
62998;DHT22;55949;52.590;7.330;2022-12-18T04:06:01;-5.20;99.90
62998;DHT22;55949;52.590;7.330;2022-12-18T04:07:03;-5.20;99.90
62998;DHT22;55949;52.590;7.330;2022-12-18T04:08:05;-5.20;99.90
62998;DHT22;55949;52.590;7.330;2022-12-18T04:09:06;-5.30;99.90
62998;DHT22;55949;52.590;7.330;2022-12-18T04:10:07;-5.30;99.90
62998;DHT22;55949;52.590;7.330;2022-12-18T04:11:09;-5.30;99.90
62998;DHT22;55949;52.590;7.330;2022-12-18T04:12:10;-5.40;99.90
62998;DHT22;55949;52.590;7.330;2022-12-18T04:13:11;-5.40;99.90
62998;DHT22;55949;52.590;7.330;2022-12-18T04:14:11;-5.40;99.90
62998;DHT22;55949;52.590;7.330;2022-12-18T04:15:13;-5.30;99.90
62998;DHT22;55949;52.590;7.330;2022-12-18T04:16:14;-5.20;99.90
62998;DHT22;55949;52.590;7.330;2022-12-18T04:17:14;-5.10;99.90
62998;DHT22;55949;52.590;7.330;2022-12-18T04:18:15;-5.00;99.90
62998;DHT22;55949;52.590;7.330;2022-12-18T04:19:16;-5.00;99.90
62998;DHT22;55949;52.590;7.330;2022-12-18T04:20:17;-5.00;99.90
62998;DHT22;55949;52.590;7.330;2022-12-18T04:21:18;-5.10;99.90
62998;DHT22;55949;52.590;7.330;2022-12-18T04:22:19;-5.20;99.90
62998;DHT22;55949;52.590;7.330;2022-12-18T04:23:20;-5.20;99.90
62998;DHT22;55949;52.590;7.330;2022-12-18T04:24:21;-5.00;99.90
62998;DHT22;55949;52.590;7.330;2022-12-18T04:25:21;-5.00;99.90
62998;DHT22;55949;52.590;7.330;2022-12-18T04:26:22;-4.90;99.90
62998;DHT22;55949;52.590;7.330;2022-12-18T04:27:23;-4.90;99.90
62998;DHT22;55949;52.590;7.330;2022-12-18T04:28:23;-4.80;99.90
62998;DHT22;55949;52.590;7.330;2022-12-18T04:29:24;-4.90;99.90
62998;DHT22;55949;52.590;7.330;2022-12-18T04:30:25;-5.00;99.90
62998;DHT22;55949;52.590;7.330;2022-12-18T04:31:25;-5.10;99.90
62998;DHT22;55949;52.590;7.330;2022-12-18T04:32:26;-5.00;99.90
62998;DHT22;55949;52.590;7.330;2022-12-18T04:33:27;-5.10;99.90
62998;DHT22;55949;52.590;7.330;2022-12-18T04:34:28;-4.90;99.90
62998;DHT22;55949;52.590;7.330;2022-12-18T04:35:28;-4.80;99.90
62998;DHT22;55949;52.590;7.330;2022-12-18T04:36:29;-4.70;99.90
62998;DHT22;55949;52.590;7.330;2022-12-18T04:37:30;-4.50;99.90
62998;DHT22;55949;52.590;7.330;2022-12-18T04:38:36;-4.30;99.90
62998;DHT22;55949;52.590;7.330;2022-12-18T04:39:37;-4.10;99.90
62998;DHT22;55949;52.590;7.330;2022-12-18T04:40:38;-3.90;99.90
62998;DHT22;55949;52.590;7.330;2022-12-18T04:41:38;-4.00;99.90
62998;DHT22;55949;52.590;7.330;2022-12-18T04:42:39;-4.10;99.90
62998;DHT22;55949;52.590;7.330;2022-12-18T04:43:40;-4.30;99.90
62998;DHT22;55949;52.590;7.330;2022-12-18T04:44:41;-4.50;99.90
62998;DHT22;55949;52.590;7.330;2022-12-18T04:45:42;-4.40;99.90
62998;DHT22;55949;52.590;7.330;2022-12-18T04:46:42;-4.30;99.90
62998;DHT22;55949;52.590;7.330;2022-12-18T04:47:43;-4.20;99.90
62998;DHT22;55949;52.590;7.330;2022-12-18T04:48:46;-3.90;99.90
62998;DHT22;55949;52.590;7.330;2022-12-18T04:49:47;-3.80;99.90
62998;DHT22;55949;52.590;7.330;2022-12-18T04:50:47;-3.80;99.90
62998;DHT22;55949;52.590;7.330;2022-12-18T04:51:48;-3.80;99.90
62998;DHT22;55949;52.590;7.330;2022-12-18T04:52:49;-4.00;99.90
62998;DHT22;55949;52.590;7.330;2022-12-18T04:53:50;-3.90;99.90
62998;DHT22;55949;52.590;7.330;2022-12-18T04:54:50;-3.90;99.90
62998;DHT22;55949;52.590;7.330;2022-12-18T04:56:01;-3.90;99.90
62998;DHT22;55949;52.590;7.330;2022-12-18T04:57:02;-3.80;99.90
62998;DHT22;55949;52.590;7.330;2022-12-18T04:58:02;-3.90;99.90
62998;DHT22;55949;52.590;7.330;2022-12-18T04:59:03;-4.00;99.90
62998;DHT22;55949;52.590;7.330;2022-12-18T05:00:04;-4.10;99.90
62998;DHT22;55949;52.590;7.330;2022-12-18T05:01:07;-4.10;99.90
62998;DHT22;55949;52.590;7.330;2022-12-18T05:02:08;-4.00;99.90
62998;DHT22;55949;52.590;7.330;2022-12-18T05:03:08;-4.00;99.90
62998;DHT22;55949;52.590;7.330;2022-12-18T05:04:09;-4.00;99.90
62998;DHT22;55949;52.590;7.330;2022-12-18T05:05:10;-4.00;99.90
62998;DHT22;55949;52.590;7.330;2022-12-18T05:06:11;-3.80;99.90
62998;DHT22;55949;52.590;7.330;2022-12-18T05:07:11;-3.80;99.90
62998;DHT22;55949;52.590;7.330;2022-12-18T05:08:12;-3.90;99.90
62998;DHT22;55949;52.590;7.330;2022-12-18T05:09:13;-3.80;99.90
62998;DHT22;55949;52.590;7.330;2022-12-18T05:10:13;-3.70;99.90
62998;DHT22;55949;52.590;7.330;2022-12-18T05:11:15;-3.90;99.90
62998;DHT22;55949;52.590;7.330;2022-12-18T05:12:18;-4.00;99.90
62998;DHT22;55949;52.590;7.330;2022-12-18T05:13:19;-4.00;99.90
62998;DHT22;55949;52.590;7.330;2022-12-18T05:14:19;-3.90;99.90
62998;DHT22;55949;52.590;7.330;2022-12-18T05:15:20;-4.00;99.90
62998;DHT22;55949;52.590;7.330;2022-12-18T05:16:21;-4.00;99.90
62998;DHT22;55949;52.590;7.330;2022-12-18T05:17:21;-4.10;99.90
62998;DHT22;55949;52.590;7.330;2022-12-18T05:18:23;-4.00;99.90
62998;DHT22;55949;52.590;7.330;2022-12-18T05:19:24;-3.80;99.90
62998;DHT22;55949;52.590;7.330;2022-12-18T05:20:25;-3.70;99.90
62998;DHT22;55949;52.590;7.330;2022-12-18T05:21:26;-3.70;99.90
62998;DHT22;55949;52.590;7.330;2022-12-18T05:22:26;-3.70;99.90
62998;DHT22;55949;52.590;7.330;2022-12-18T05:23:28;-3.80;99.90
62998;DHT22;55949;52.590;7.330;2022-12-18T05:24:28;-3.90;99.90
62998;DHT22;55949;52.590;7.330;2022-12-18T05:25:29;-4.00;99.90
62998;DHT22;55949;52.590;7.330;2022-12-18T05:26:30;-4.00;99.90
62998;DHT22;55949;52.590;7.330;2022-12-18T05:27:30;-4.00;99.90
62998;DHT22;55949;52.590;7.330;2022-12-18T05:28:32;-4.00;99.90
62998;DHT22;55949;52.590;7.330;2022-12-18T05:29:33;-4.10;99.90
62998;DHT22;55949;52.590;7.330;2022-12-18T05:30:34;-4.20;99.90
62998;DHT22;55949;52.590;7.330;2022-12-18T05:31:35;-4.30;99.90
62998;DHT22;55949;52.590;7.330;2022-12-18T05:32:35;-4.30;99.90
62998;DHT22;55949;52.590;7.330;2022-12-18T05:33:36;-4.40;99.90
62998;DHT22;55949;52.590;7.330;2022-12-18T05:34:37;-4.50;99.90
62998;DHT22;55949;52.590;7.330;2022-12-18T05:35:37;-4.60;99.90
62998;DHT22;55949;52.590;7.330;2022-12-18T05:36:38;-4.70;99.90
62998;DHT22;55949;52.590;7.330;2022-12-18T05:37:39;-4.70;99.90
62998;DHT22;55949;52.590;7.330;2022-12-18T05:38:39;-4.80;99.90
62998;DHT22;55949;52.590;7.330;2022-12-18T05:39:40;-4.80;99.90
62998;DHT22;55949;52.590;7.330;2022-12-18T05:40:44;-4.90;99.90
62998;DHT22;55949;52.590;7.330;2022-12-18T05:41:44;-4.90;99.90
62998;DHT22;55949;52.590;7.330;2022-12-18T05:42:45;-5.00;99.90
62998;DHT22;55949;52.590;7.330;2022-12-18T05:43:46;-5.00;99.90
62998;DHT22;55949;52.590;7.330;2022-12-18T05:44:46;-5.00;99.90
62998;DHT22;55949;52.590;7.330;2022-12-18T05:45:47;-4.90;99.90
62998;DHT22;55949;52.590;7.330;2022-12-18T05:46:48;-5.00;99.90
62998;DHT22;55949;52.590;7.330;2022-12-18T05:47:49;-5.00;99.90
62998;DHT22;55949;52.590;7.330;2022-12-18T05:48:49;-4.90;99.90
62998;DHT22;55949;52.590;7.330;2022-12-18T05:49:51;-4.90;99.90
62998;DHT22;55949;52.590;7.330;2022-12-18T05:50:51;-4.90;99.90
62998;DHT22;55949;52.590;7.330;2022-12-18T05:51:52;-4.90;99.90
62998;DHT22;55949;52.590;7.330;2022-12-18T05:52:53;-4.80;99.90
62998;DHT22;55949;52.590;7.330;2022-12-18T05:53:53;-4.60;99.90
62998;DHT22;55949;52.590;7.330;2022-12-18T05:54:54;-4.30;99.90
62998;DHT22;55949;52.590;7.330;2022-12-18T05:56:00;-4.20;99.90
62998;DHT22;55949;52.590;7.330;2022-12-18T05:57:01;-4.00;99.90
62998;DHT22;55949;52.590;7.330;2022-12-18T05:58:03;-3.80;99.90
62998;DHT22;55949;52.590;7.330;2022-12-18T05:59:04;-3.70;99.90
62998;DHT22;55949;52.590;7.330;2022-12-18T06:00:05;-3.80;99.90
62998;DHT22;55949;52.590;7.330;2022-12-18T06:01:14;-4.00;99.90
62998;DHT22;55949;52.590;7.330;2022-12-18T06:02:15;-4.00;99.90
62998;DHT22;55949;52.590;7.330;2022-12-18T06:03:15;-4.10;99.90
62998;DHT22;55949;52.590;7.330;2022-12-18T06:04:16;-4.10;99.90
62998;DHT22;55949;52.590;7.330;2022-12-18T06:05:17;-4.00;99.90
62998;DHT22;55949;52.590;7.330;2022-12-18T06:06:20;-3.80;99.90
62998;DHT22;55949;52.590;7.330;2022-12-18T06:07:21;-3.90;99.90
62998;DHT22;55949;52.590;7.330;2022-12-18T06:08:22;-4.00;99.90
62998;DHT22;55949;52.590;7.330;2022-12-18T06:09:22;-4.10;99.90
62998;DHT22;55949;52.590;7.330;2022-12-18T06:10:23;-4.30;99.90
62998;DHT22;55949;52.590;7.330;2022-12-18T06:11:25;-4.40;99.90
62998;DHT22;55949;52.590;7.330;2022-12-18T06:12:26;-4.50;99.90
62998;DHT22;55949;52.590;7.330;2022-12-18T06:13:27;-4.60;99.90
62998;DHT22;55949;52.590;7.330;2022-12-18T06:14:28;-4.60;99.90
62998;DHT22;55949;52.590;7.330;2022-12-18T06:15:28;-4.50;99.90
62998;DHT22;55949;52.590;7.330;2022-12-18T06:16:29;-4.60;99.90
62998;DHT22;55949;52.590;7.330;2022-12-18T06:17:31;-4.50;99.90
62998;DHT22;55949;52.590;7.330;2022-12-18T06:18:32;-4.40;99.90
62998;DHT22;55949;52.590;7.330;2022-12-18T06:19:33;-4.50;99.90
62998;DHT22;55949;52.590;7.330;2022-12-18T06:20:33;-4.60;99.90
62998;DHT22;55949;52.590;7.330;2022-12-18T06:21:36;-4.60;99.90
62998;DHT22;55949;52.590;7.330;2022-12-18T06:22:37;-4.50;99.90
62998;DHT22;55949;52.590;7.330;2022-12-18T06:23:38;-4.30;99.90
62998;DHT22;55949;52.590;7.330;2022-12-18T06:24:38;-4.10;99.90
62998;DHT22;55949;52.590;7.330;2022-12-18T06:25:39;-3.90;99.90
62998;DHT22;55949;52.590;7.330;2022-12-18T06:26:40;-3.60;99.90
62998;DHT22;55949;52.590;7.330;2022-12-18T06:27:40;-3.60;99.90
62998;DHT22;55949;52.590;7.330;2022-12-18T06:28:41;-3.80;99.90
62998;DHT22;55949;52.590;7.330;2022-12-18T06:29:42;-3.90;99.90
62998;DHT22;55949;52.590;7.330;2022-12-18T06:30:44;-4.00;99.90
62998;DHT22;55949;52.590;7.330;2022-12-18T06:31:45;-4.00;99.90
62998;DHT22;55949;52.590;7.330;2022-12-18T06:32:47;-4.10;99.90
62998;DHT22;55949;52.590;7.330;2022-12-18T06:33:48;-4.10;99.90
62998;DHT22;55949;52.590;7.330;2022-12-18T06:34:49;-4.30;99.90
62998;DHT22;55949;52.590;7.330;2022-12-18T06:35:50;-4.40;99.90
62998;DHT22;55949;52.590;7.330;2022-12-18T06:36:50;-4.40;99.90
62998;DHT22;55949;52.590;7.330;2022-12-18T06:37:51;-4.60;99.90
62998;DHT22;55949;52.590;7.330;2022-12-18T06:38:51;-4.70;99.90
62998;DHT22;55949;52.590;7.330;2022-12-18T06:39:53;-4.80;99.90
62998;DHT22;55949;52.590;7.330;2022-12-18T06:40:54;-4.90;99.90
62998;DHT22;55949;52.590;7.330;2022-12-18T06:41:55;-5.00;99.90
62998;DHT22;55949;52.590;7.330;2022-12-18T06:42:55;-5.00;99.90
62998;DHT22;55949;52.590;7.330;2022-12-18T06:43:57;-5.00;99.90
62998;DHT22;55949;52.590;7.330;2022-12-18T06:44:58;-5.10;99.90
62998;DHT22;55949;52.590;7.330;2022-12-18T06:46:00;-5.20;99.90
62998;DHT22;55949;52.590;7.330;2022-12-18T06:47:01;-5.30;99.90
62998;DHT22;55949;52.590;7.330;2022-12-18T06:48:02;-5.40;99.90
62998;DHT22;55949;52.590;7.330;2022-12-18T06:49:03;-5.40;99.90
62998;DHT22;55949;52.590;7.330;2022-12-18T06:50:03;-5.60;99.90
62998;DHT22;55949;52.590;7.330;2022-12-18T06:51:04;-5.60;99.90
62998;DHT22;55949;52.590;7.330;2022-12-18T06:52:05;-5.70;99.90
62998;DHT22;55949;52.590;7.330;2022-12-18T06:53:06;-5.80;99.90
62998;DHT22;55949;52.590;7.330;2022-12-18T06:54:06;-5.80;99.90
62998;DHT22;55949;52.590;7.330;2022-12-18T06:55:09;-6.00;99.90
62998;DHT22;55949;52.590;7.330;2022-12-18T06:56:10;-6.00;99.90
62998;DHT22;55949;52.590;7.330;2022-12-18T06:57:10;-6.10;99.90
62998;DHT22;55949;52.590;7.330;2022-12-18T06:58:11;-6.10;99.90
62998;DHT22;55949;52.590;7.330;2022-12-18T06:59:13;-6.10;99.90
62998;DHT22;55949;52.590;7.330;2022-12-18T07:00:14;-6.10;99.90
62998;DHT22;55949;52.590;7.330;2022-12-18T07:01:15;-6.00;99.90
62998;DHT22;55949;52.590;7.330;2022-12-18T07:02:15;-6.00;99.90